sensor_id;sensor_type;location;lat;lon;timestamp;pressure;altitude;pressure_sealevel;temperature;humidity
72896;BME280;61036;53.224;6.554;2022-11-15T00:01:51;100943.03;;;7.57;100.00
72896;BME280;61036;53.224;6.554;2022-11-15T00:04:36;100942.25;;;7.55;100.00
72896;BME280;61036;53.224;6.554;2022-11-15T00:07:20;100932.41;;;7.55;100.00
72896;BME280;61036;53.224;6.554;2022-11-15T00:10:08;100941.09;;;7.45;100.00
72896;BME280;61036;53.224;6.554;2022-11-15T00:12:55;100944.44;;;7.34;100.00
72896;BME280;61036;53.224;6.554;2022-11-15T00:15:41;100935.66;;;7.16;100.00
72896;BME280;61036;53.224;6.554;2022-11-15T00:18:26;100942.81;;;7.16;100.00
72896;BME280;61036;53.224;6.554;2022-11-15T00:21:13;100934.38;;;7.07;100.00
72896;BME280;61036;53.224;6.554;2022-11-15T00:23:58;100933.53;;;6.91;100.00
72896;BME280;61036;53.224;6.554;2022-11-15T00:26:42;100931.88;;;6.88;100.00
72896;BME280;61036;53.224;6.554;2022-11-15T00:29:26;100938.38;;;6.84;100.00
72896;BME280;61036;53.224;6.554;2022-11-15T00:32:10;100928.03;;;6.78;100.00
72896;BME280;61036;53.224;6.554;2022-11-15T00:34:54;100934.25;;;6.79;100.00
72896;BME280;61036;53.224;6.554;2022-11-15T00:37:39;100930.78;;;6.77;100.00
72896;BME280;61036;53.224;6.554;2022-11-15T00:40:23;100933.38;;;6.78;100.00
72896;BME280;61036;53.224;6.554;2022-11-15T00:43:08;100923.78;;;6.90;100.00
72896;BME280;61036;53.224;6.554;2022-11-15T00:45:52;100913.28;;;7.01;100.00
72896;BME280;61036;53.224;6.554;2022-11-15T00:48:39;100905.91;;;7.05;100.00
72896;BME280;61036;53.224;6.554;2022-11-15T00:51:24;100910.06;;;7.10;100.00
72896;BME280;61036;53.224;6.554;2022-11-15T00:54:08;100910.91;;;7.11;100.00
72896;BME280;61036;53.224;6.554;2022-11-15T00:56:53;100899.03;;;7.15;100.00
72896;BME280;61036;53.224;6.554;2022-11-15T00:59:38;100899.91;;;7.16;100.00
72896;BME280;61036;53.224;6.554;2022-11-15T01:02:22;100898.00;;;7.18;100.00
72896;BME280;61036;53.224;6.554;2022-11-15T01:05:06;100894.47;;;7.17;100.00
72896;BME280;61036;53.224;6.554;2022-11-15T01:07:52;100888.31;;;7.15;100.00
72896;BME280;61036;53.224;6.554;2022-11-15T01:10:36;100875.28;;;7.09;100.00
72896;BME280;61036;53.224;6.554;2022-11-15T01:13:20;100881.78;;;7.05;100.00
72896;BME280;61036;53.224;6.554;2022-11-15T01:16:09;100877.88;;;7.10;100.00
72896;BME280;61036;53.224;6.554;2022-11-15T01:18:56;100871.94;;;7.05;100.00
72896;BME280;61036;53.224;6.554;2022-11-15T01:21:41;100861.28;;;7.04;100.00
72896;BME280;61036;53.224;6.554;2022-11-15T01:24:28;100869.97;;;6.93;100.00
72896;BME280;61036;53.224;6.554;2022-11-15T01:27:12;100868.06;;;6.95;100.00
72896;BME280;61036;53.224;6.554;2022-11-15T01:29:56;100867.78;;;7.00;100.00
72896;BME280;61036;53.224;6.554;2022-11-15T01:32:41;100860.22;;;6.92;100.00
72896;BME280;61036;53.224;6.554;2022-11-15T01:35:25;100862.53;;;6.98;100.00
72896;BME280;61036;53.224;6.554;2022-11-15T01:38:09;100864.13;;;7.01;100.00
72896;BME280;61036;53.224;6.554;2022-11-15T01:40:54;100854.50;;;6.98;100.00
72896;BME280;61036;53.224;6.554;2022-11-15T01:43:39;100850.16;;;6.96;100.00
72896;BME280;61036;53.224;6.554;2022-11-15T01:46:28;100850.34;;;6.93;100.00
72896;BME280;61036;53.224;6.554;2022-11-15T01:49:19;100849.00;;;7.00;100.00
72896;BME280;61036;53.224;6.554;2022-11-15T01:52:08;100838.41;;;6.98;100.00
72896;BME280;61036;53.224;6.554;2022-11-15T01:55:19;100840.13;;;6.99;100.00
72896;BME280;61036;53.224;6.554;2022-11-15T01:58:05;100831.09;;;7.00;100.00
72896;BME280;61036;53.224;6.554;2022-11-15T02:00:50;100835.78;;;6.97;100.00
72896;BME280;61036;53.224;6.554;2022-11-15T02:03:41;100840.91;;;7.01;100.00
72896;BME280;61036;53.224;6.554;2022-11-15T02:06:27;100832.34;;;6.95;100.00
72896;BME280;61036;53.224;6.554;2022-11-15T02:09:12;100830.72;;;6.92;100.00
72896;BME280;61036;53.224;6.554;2022-11-15T02:11:57;100831.84;;;6.88;100.00
72896;BME280;61036;53.224;6.554;2022-11-15T02:14:46;100830.72;;;6.92;100.00
72896;BME280;61036;53.224;6.554;2022-11-15T02:17:51;100829.56;;;6.96;100.00
72896;BME280;61036;53.224;6.554;2022-11-15T02:20:47;100826.97;;;6.95;100.00
72896;BME280;61036;53.224;6.554;2022-11-15T02:30:40;100818.75;;;6.83;100.00
72896;BME280;61036;53.224;6.554;2022-11-15T02:33:48;100816.34;;;6.93;100.00
72896;BME280;61036;53.224;6.554;2022-11-15T02:39:50;100814.84;;;6.89;100.00
72896;BME280;61036;53.224;6.554;2022-11-15T02:42:41;100813.69;;;6.93;100.00
72896;BME280;61036;53.224;6.554;2022-11-15T02:45:56;100816.63;;;6.88;100.00
72896;BME280;61036;53.224;6.554;2022-11-15T02:48:43;100818.44;;;6.88;100.00
72896;BME280;61036;53.224;6.554;2022-11-15T02:51:27;100802.34;;;6.88;100.00
72896;BME280;61036;53.224;6.554;2022-11-15T02:54:18;100806.78;;;6.89;100.00
72896;BME280;61036;53.224;6.554;2022-11-15T02:57:10;100818.84;;;6.96;100.00
72896;BME280;61036;53.224;6.554;2022-11-15T03:00:08;100812.59;;;6.81;100.00
72896;BME280;61036;53.224;6.554;2022-11-15T03:03:21;100819.97;;;6.78;100.00
72896;BME280;61036;53.224;6.554;2022-11-15T03:06:35;100818.56;;;6.86;100.00
72896;BME280;61036;53.224;6.554;2022-11-15T03:12:25;100797.28;;;6.83;100.00
72896;BME280;61036;53.224;6.554;2022-11-15T03:15:20;100807.16;;;6.83;100.00
72896;BME280;61036;53.224;6.554;2022-11-15T03:18:15;100804.09;;;6.89;100.00
72896;BME280;61036;53.224;6.554;2022-11-15T03:21:04;100797.19;;;6.85;100.00
72896;BME280;61036;53.224;6.554;2022-11-15T03:23:51;100806.69;;;6.91;100.00
72896;BME280;61036;53.224;6.554;2022-11-15T03:26:40;100785.72;;;6.97;100.00
72896;BME280;61036;53.224;6.554;2022-11-15T03:29:31;100791.75;;;7.01;100.00
72896;BME280;61036;53.224;6.554;2022-11-15T03:32:23;100781.91;;;7.01;100.00
72896;BME280;61036;53.224;6.554;2022-11-15T03:35:18;100781.63;;;7.06;100.00
72896;BME280;61036;53.224;6.554;2022-11-15T03:40:58;100783.16;;;7.10;100.00
72896;BME280;61036;53.224;6.554;2022-11-15T03:43:53;100779.91;;;7.05;100.00
72896;BME280;61036;53.224;6.554;2022-11-15T03:46:46;100779.72;;;7.08;100.00
72896;BME280;61036;53.224;6.554;2022-11-15T03:49:36;100784.69;;;7.14;100.00
72896;BME280;61036;53.224;6.554;2022-11-15T03:52:22;100776.28;;;7.20;100.00
72896;BME280;61036;53.224;6.554;2022-11-15T03:55:13;100769.28;;;7.18;100.00
72896;BME280;61036;53.224;6.554;2022-11-15T03:58:00;100772.72;;;7.20;100.00
72896;BME280;61036;53.224;6.554;2022-11-15T04:00:44;100765.25;;;7.25;100.00
72896;BME280;61036;53.224;6.554;2022-11-15T04:03:29;100769.09;;;7.21;100.00
72896;BME280;61036;53.224;6.554;2022-11-15T04:06:14;100765.25;;;7.25;100.00
72896;BME280;61036;53.224;6.554;2022-11-15T04:08:59;100760.00;;;7.23;100.00
72896;BME280;61036;53.224;6.554;2022-11-15T04:11:44;100760.56;;;7.28;100.00
72896;BME280;61036;53.224;6.554;2022-11-15T04:14:29;100764.19;;;7.27;100.00
72896;BME280;61036;53.224;6.554;2022-11-15T04:17:13;100760.75;;;7.25;100.00
72896;BME280;61036;53.224;6.554;2022-11-15T04:19:58;100759.34;;;7.34;100.00
72896;BME280;61036;53.224;6.554;2022-11-15T04:23:04;100762.09;;;7.32;100.00
72896;BME280;61036;53.224;6.554;2022-11-15T04:26:11;100762.94;;;7.33;100.00
72896;BME280;61036;53.224;6.554;2022-11-15T04:28:57;100759.69;;;7.42;100.00
72896;BME280;61036;53.224;6.554;2022-11-15T04:32:00;100767.53;;;7.45;100.00
72896;BME280;61036;53.224;6.554;2022-11-15T04:34:44;100771.47;;;7.40;100.00
72896;BME280;61036;53.224;6.554;2022-11-15T04:37:28;100774.72;;;7.45;100.00
72896;BME280;61036;53.224;6.554;2022-11-15T04:40:16;100767.53;;;7.45;100.00
72896;BME280;61036;53.224;6.554;2022-11-15T04:43:00;100773.09;;;7.42;100.00
72896;BME280;61036;53.224;6.554;2022-11-15T04:45:44;100767.25;;;7.50;100.00
72896;BME280;61036;53.224;6.554;2022-11-15T04:48:29;100763.72;;;7.49;100.00
72896;BME280;61036;53.224;6.554;2022-11-15T04:51:13;100764.66;;;7.48;100.00
72896;BME280;61036;53.224;6.554;2022-11-15T04:53:57;100769.09;;;7.49;100.00
72896;BME280;61036;53.224;6.554;2022-11-15T04:56:42;100766.41;;;7.49;100.00
72896;BME280;61036;53.224;6.554;2022-11-15T04:59:26;100762.19;;;7.45;100.00
72896;BME280;61036;53.224;6.554;2022-11-15T05:02:10;100758.06;;;7.54;100.00
72896;BME280;61036;53.224;6.554;2022-11-15T05:04:54;100763.34;;;7.55;100.00
72896;BME280;61036;53.224;6.554;2022-11-15T05:07:39;100764.84;;;7.60;100.00
72896;BME280;61036;53.224;6.554;2022-11-15T05:10:26;100763.59;;;7.65;100.00
72896;BME280;61036;53.224;6.554;2022-11-15T05:13:10;100759.28;;;7.63;100.00
72896;BME280;61036;53.224;6.554;2022-11-15T05:15:55;100763.69;;;7.64;100.00
72896;BME280;61036;53.224;6.554;2022-11-15T05:18:39;100763.41;;;7.68;100.00
72896;BME280;61036;53.224;6.554;2022-11-15T05:21:25;100750.84;;;7.69;100.00
72896;BME280;61036;53.224;6.554;2022-11-15T05:24:10;100760.81;;;7.67;100.00
72896;BME280;61036;53.224;6.554;2022-11-15T05:26:54;100757.19;;;7.68;100.00
72896;BME280;61036;53.224;6.554;2022-11-15T05:29:39;100745.47;;;7.69;100.00
72896;BME280;61036;53.224;6.554;2022-11-15T05:32:23;100761.19;;;7.75;100.00
72896;BME280;61036;53.224;6.554;2022-11-15T05:35:10;100764.44;;;7.80;100.00
72896;BME280;61036;53.224;6.554;2022-11-15T05:37:56;100759.06;;;7.80;100.00
72896;BME280;61036;53.224;6.554;2022-11-15T05:40:40;100764.13;;;7.85;100.00
72896;BME280;61036;53.224;6.554;2022-11-15T05:43:30;100760.50;;;7.86;100.00
72896;BME280;61036;53.224;6.554;2022-11-15T05:46:17;100760.31;;;7.89;100.00
72896;BME280;61036;53.224;6.554;2022-11-15T05:49:02;100763.72;;;7.91;100.00
72896;BME280;61036;53.224;6.554;2022-11-15T05:51:47;100759.78;;;7.96;100.00
72896;BME280;61036;53.224;6.554;2022-11-15T05:54:33;100762.19;;;8.01;100.00
72896;BME280;61036;53.224;6.554;2022-11-15T05:57:18;100770.91;;;8.05;100.00
72896;BME280;61036;53.224;6.554;2022-11-15T06:00:03;100765.31;;;8.08;100.00
72896;BME280;61036;53.224;6.554;2022-11-15T06:02:49;100767.81;;;8.11;100.00
72896;BME280;61036;53.224;6.554;2022-11-15T06:05:33;100772.13;;;8.13;100.00
72896;BME280;61036;53.224;6.554;2022-11-15T06:08:17;100771.59;;;8.21;100.00
72896;BME280;61036;53.224;6.554;2022-11-15T06:11:05;100781.41;;;8.22;100.00
72896;BME280;61036;53.224;6.554;2022-11-15T06:13:50;100780.34;;;8.24;100.00
72896;BME280;61036;53.224;6.554;2022-11-15T06:16:35;100776.56;;;8.27;100.00
72896;BME280;61036;53.224;6.554;2022-11-15T06:19:19;100789.59;;;8.33;100.00
72896;BME280;61036;53.224;6.554;2022-11-15T06:22:05;100791.97;;;8.38;100.00
72896;BME280;61036;53.224;6.554;2022-11-15T06:24:50;100793.72;;;8.39;100.00
72896;BME280;61036;53.224;6.554;2022-11-15T06:27:34;100796.31;;;8.40;100.00
72896;BME280;61036;53.224;6.554;2022-11-15T06:30:19;100799.47;;;8.47;100.00
72896;BME280;61036;53.224;6.554;2022-11-15T06:33:05;100800.88;;;8.53;100.00
72896;BME280;61036;53.224;6.554;2022-11-15T06:35:54;100797.88;;;8.57;100.00
72896;BME280;61036;53.224;6.554;2022-11-15T06:38:39;100807.66;;;8.58;100.00
72896;BME280;61036;53.224;6.554;2022-11-15T06:41:26;100813.72;;;8.75;100.00
72896;BME280;61036;53.224;6.554;2022-11-15T06:44:11;100812.78;;;8.76;100.00
72896;BME280;61036;53.224;6.554;2022-11-15T06:46:55;100807.41;;;8.76;100.00
72896;BME280;61036;53.224;6.554;2022-11-15T06:49:40;100807.28;;;8.77;100.00
72896;BME280;61036;53.224;6.554;2022-11-15T06:52:24;100811.47;;;8.81;100.00
72896;BME280;61036;53.224;6.554;2022-11-15T06:55:11;100812.78;;;8.88;100.00
72896;BME280;61036;53.224;6.554;2022-11-15T06:57:56;100817.00;;;8.92;100.00
72896;BME280;61036;53.224;6.554;2022-11-15T07:00:40;100817.00;;;8.92;100.00
72896;BME280;61036;53.224;6.554;2022-11-15T07:03:24;100818.41;;;8.98;100.00
72896;BME280;61036;53.224;6.554;2022-11-15T07:06:09;100813.88;;;8.99;100.00
72896;BME280;61036;53.224;6.554;2022-11-15T07:08:54;100820.38;;;9.09;100.00
72896;BME280;61036;53.224;6.554;2022-11-15T07:11:38;100811.97;;;9.13;100.00
72896;BME280;61036;53.224;6.554;2022-11-15T07:14:24;100815.28;;;9.17;100.00
72896;BME280;61036;53.224;6.554;2022-11-15T07:17:08;100816.06;;;9.19;100.00
72896;BME280;61036;53.224;6.554;2022-11-15T07:19:52;100829.28;;;9.22;100.00
72896;BME280;61036;53.224;6.554;2022-11-15T07:22:37;100829.84;;;9.27;100.00
72896;BME280;61036;53.224;6.554;2022-11-15T07:25:21;100832.31;;;9.30;100.00
72896;BME280;61036;53.224;6.554;2022-11-15T07:28:05;100826.72;;;9.33;100.00
72896;BME280;61036;53.224;6.554;2022-11-15T07:30:49;100836.84;;;9.30;100.00
72896;BME280;61036;53.224;6.554;2022-11-15T07:33:34;100836.06;;;9.41;100.00
72896;BME280;61036;53.224;6.554;2022-11-15T07:36:19;100842.22;;;9.43;100.00
72896;BME280;61036;53.224;6.554;2022-11-15T07:39:03;100832.66;;;9.51;100.00
72896;BME280;61036;53.224;6.554;2022-11-15T07:41:47;100835.34;;;9.51;100.00
72896;BME280;61036;53.224;6.554;2022-11-15T07:44:33;100833.28;;;9.55;100.00
72896;BME280;61036;53.224;6.554;2022-11-15T07:47:18;100832.84;;;9.61;100.00
72896;BME280;61036;53.224;6.554;2022-11-15T07:50:02;100837.47;;;9.59;100.00
72896;BME280;61036;53.224;6.554;2022-11-15T07:52:47;100834.56;;;9.62;100.00
72896;BME280;61036;53.224;6.554;2022-11-15T07:55:31;100828.09;;;9.65;100.00
72896;BME280;61036;53.224;6.554;2022-11-15T07:58:15;100833.38;;;9.66;100.00
72896;BME280;61036;53.224;6.554;2022-11-15T08:01:06;100831.13;;;9.73;100.00
72896;BME280;61036;53.224;6.554;2022-11-15T08:03:50;100832.72;;;9.75;100.00
72896;BME280;61036;53.224;6.554;2022-11-15T08:06:35;100835.28;;;9.77;100.00
72896;BME280;61036;53.224;6.554;2022-11-15T08:09:20;100837.44;;;9.84;100.00
72896;BME280;61036;53.224;6.554;2022-11-15T08:12:04;100827.31;;;9.88;100.00
72896;BME280;61036;53.224;6.554;2022-11-15T08:14:48;100841.41;;;9.92;100.00
72896;BME280;61036;53.224;6.554;2022-11-15T08:17:33;100834.84;;;9.96;100.00
72896;BME280;61036;53.224;6.554;2022-11-15T08:20:18;100836.56;;;9.97;100.00
72896;BME280;61036;53.224;6.554;2022-11-15T08:23:04;100836.22;;;10.01;100.00
72896;BME280;61036;53.224;6.554;2022-11-15T08:25:49;100830.28;;;10.09;100.00
72896;BME280;61036;53.224;6.554;2022-11-15T08:28:33;100837.38;;;10.10;100.00
72896;BME280;61036;53.224;6.554;2022-11-15T08:31:18;100836.22;;;10.14;100.00
72896;BME280;61036;53.224;6.554;2022-11-15T08:34:03;100836.72;;;10.19;100.00
72896;BME280;61036;53.224;6.554;2022-11-15T08:36:48;100828.09;;;10.27;100.00
72896;BME280;61036;53.224;6.554;2022-11-15T08:39:33;100820.41;;;10.34;100.00
72896;BME280;61036;53.224;6.554;2022-11-15T08:42:17;100815.78;;;10.36;100.00
72896;BME280;61036;53.224;6.554;2022-11-15T08:45:02;100826.56;;;10.36;100.00
72896;BME280;61036;53.224;6.554;2022-11-15T08:47:47;100823.72;;;10.37;100.00
72896;BME280;61036;53.224;6.554;2022-11-15T08:50:31;100812.97;;;10.37;100.00
72896;BME280;61036;53.224;6.554;2022-11-15T08:53:17;100816.63;;;10.36;100.00
72896;BME280;61036;53.224;6.554;2022-11-15T08:56:01;100811.63;;;10.43;100.00
72896;BME280;61036;53.224;6.554;2022-11-15T08:58:46;100810.94;;;10.52;100.00
72896;BME280;61036;53.224;6.554;2022-11-15T09:01:30;100794.22;;;10.71;100.00
72896;BME280;61036;53.224;6.554;2022-11-15T09:04:16;100796.25;;;10.80;100.00
72896;BME280;61036;53.224;6.554;2022-11-15T09:07:01;100800.38;;;10.73;100.00
72896;BME280;61036;53.224;6.554;2022-11-15T09:09:46;100792.56;;;10.81;100.00
72896;BME280;61036;53.224;6.554;2022-11-15T09:12:31;100784.75;;;10.89;100.00
72896;BME280;61036;53.224;6.554;2022-11-15T09:15:15;100777.88;;;10.96;100.00
72896;BME280;61036;53.224;6.554;2022-11-15T09:18:00;100766.88;;;11.22;100.00
72896;BME280;61036;53.224;6.554;2022-11-15T09:20:44;100774.28;;;11.31;100.00
72896;BME280;61036;53.224;6.554;2022-11-15T09:23:30;100781.97;;;11.13;100.00
72896;BME280;61036;53.224;6.554;2022-11-15T09:26:15;100784.66;;;11.02;100.00
72896;BME280;61036;53.224;6.554;2022-11-15T09:29:00;100783.16;;;10.98;100.00
72896;BME280;61036;53.224;6.554;2022-11-15T09:31:45;100788.34;;;11.01;100.00
72896;BME280;61036;53.224;6.554;2022-11-15T09:34:29;100787.09;;;11.05;100.00
72896;BME280;61036;53.224;6.554;2022-11-15T09:37:13;100783.19;;;11.09;100.00
72896;BME280;61036;53.224;6.554;2022-11-15T09:39:57;100783.56;;;11.16;100.00
72896;BME280;61036;53.224;6.554;2022-11-15T09:48:56;100779.91;;;11.17;100.00
72896;BME280;61036;53.224;6.554;2022-11-15T09:51:45;100779.53;;;11.10;100.00
72896;BME280;61036;53.224;6.554;2022-11-15T09:57:09;100778.94;;;11.29;100.00
72896;BME280;61036;53.224;6.554;2022-11-15T10:04:46;100781.72;;;11.28;100.00
72896;BME280;61036;53.224;6.554;2022-11-15T10:07:26;100776.09;;;11.19;100.00
72896;BME280;61036;53.224;6.554;2022-11-15T10:09:58;100768.09;;;11.18;100.00
72896;BME280;61036;53.224;6.554;2022-11-15T10:12:25;100763.94;;;11.14;100.00
72896;BME280;61036;53.224;6.554;2022-11-15T10:15:00;100763.69;;;11.17;100.00
72896;BME280;61036;53.224;6.554;2022-11-15T10:20:37;100753.75;;;11.17;100.00
72896;BME280;61036;53.224;6.554;2022-11-15T10:23:06;100750.06;;;11.18;100.00
72896;BME280;61036;53.224;6.554;2022-11-15T10:25:36;100747.63;;;11.15;100.00
72896;BME280;61036;53.224;6.554;2022-11-15T10:28:20;100741.38;;;11.26;100.00
72896;BME280;61036;53.224;6.554;2022-11-15T10:30:52;100742.84;;;11.30;100.00
72896;BME280;61036;53.224;6.554;2022-11-15T10:33:31;100739.19;;;11.31;100.00
72896;BME280;61036;53.224;6.554;2022-11-15T10:36:22;100737.19;;;11.33;100.00
72896;BME280;61036;53.224;6.554;2022-11-15T10:41:37;100722.50;;;11.37;100.00
72896;BME280;61036;53.224;6.554;2022-11-15T10:46:36;100723.09;;;11.30;100.00
72896;BME280;61036;53.224;6.554;2022-11-15T10:49:27;100721.59;;;11.37;100.00
72896;BME280;61036;53.224;6.554;2022-11-15T10:52:15;100711.19;;;11.32;100.00
72896;BME280;61036;53.224;6.554;2022-11-15T10:54:46;100710.34;;;11.32;100.00
72896;BME280;61036;53.224;6.554;2022-11-15T10:57:15;100706.53;;;11.34;100.00
72896;BME280;61036;53.224;6.554;2022-11-15T10:59:48;100717.56;;;11.42;100.00
72896;BME280;61036;53.224;6.554;2022-11-15T11:04:50;100706.50;;;11.45;100.00
72896;BME280;61036;53.224;6.554;2022-11-15T11:07:27;100710.69;;;11.50;100.00
72896;BME280;61036;53.224;6.554;2022-11-15T11:10:19;100719.28;;;11.43;100.00
72896;BME280;61036;53.224;6.554;2022-11-15T11:12:48;100718.81;;;11.38;100.00
72896;BME280;61036;53.224;6.554;2022-11-15T11:15:17;100714.41;;;11.37;100.00
72896;BME280;61036;53.224;6.554;2022-11-15T11:17:58;100707.00;;;11.39;100.00
72896;BME280;61036;53.224;6.554;2022-11-15T11:20:45;100704.06;;;11.42;100.00
72896;BME280;61036;53.224;6.554;2022-11-15T11:23:37;100703.69;;;11.58;100.00
72896;BME280;61036;53.224;6.554;2022-11-15T11:29:21;100693.94;;;11.78;100.00
72896;BME280;61036;53.224;6.554;2022-11-15T11:32:46;100691.34;;;11.88;100.00
72896;BME280;61036;53.224;6.554;2022-11-15T11:35:09;100683.38;;;11.98;100.00
72896;BME280;61036;53.224;6.554;2022-11-15T11:45:36;100687.31;;;11.82;100.00
72896;BME280;61036;53.224;6.554;2022-11-15T11:50:31;100686.13;;;12.19;100.00
72896;BME280;61036;53.224;6.554;2022-11-15T11:53:05;100684.78;;;12.13;100.00
72896;BME280;61036;53.224;6.554;2022-11-15T11:55:58;100681.44;;;12.42;100.00
72896;BME280;61036;53.224;6.554;2022-11-15T12:00:59;100675.22;;;12.30;100.00
72896;BME280;61036;53.224;6.554;2022-11-15T12:03:52;100677.81;;;11.99;100.00
72896;BME280;61036;53.224;6.554;2022-11-15T12:06:36;100673.94;;;11.92;100.00
72896;BME280;61036;53.224;6.554;2022-11-15T12:09:23;100665.22;;;11.88;100.00
72896;BME280;61036;53.224;6.554;2022-11-15T12:12:13;100670.38;;;11.92;100.00
72896;BME280;61036;53.224;6.554;2022-11-15T12:17:30;100666.97;;;12.10;100.00
72896;BME280;61036;53.224;6.554;2022-11-15T12:20:14;100656.69;;;12.04;100.00
72896;BME280;61036;53.224;6.554;2022-11-15T12:25:46;100656.78;;;12.03;100.00
72896;BME280;61036;53.224;6.554;2022-11-15T12:28:19;100647.91;;;12.12;100.00
72896;BME280;61036;53.224;6.554;2022-11-15T12:30:52;100647.34;;;11.97;100.00
72896;BME280;61036;53.224;6.554;2022-11-15T12:33:42;100643.72;;;11.87;100.00
72896;BME280;61036;53.224;6.554;2022-11-15T12:36:11;100652.50;;;12.00;100.00
72896;BME280;61036;53.224;6.554;2022-11-15T12:41:18;100639.09;;;12.10;100.00
72896;BME280;61036;53.224;6.554;2022-11-15T12:43:46;100632.09;;;12.07;100.00
72896;BME280;61036;53.224;6.554;2022-11-15T12:49:56;100638.06;;;11.90;100.00
72896;BME280;61036;53.224;6.554;2022-11-15T12:59:51;100637.09;;;12.12;100.00
72896;BME280;61036;53.224;6.554;2022-11-15T13:02:42;100641.66;;;12.32;100.00
72896;BME280;61036;53.224;6.554;2022-11-15T13:17:38;100607.34;;;12.75;100.00
72896;BME280;61036;53.224;6.554;2022-11-15T13:23:09;100608.16;;;12.45;100.00
72896;BME280;61036;53.224;6.554;2022-11-15T13:35:59;100587.97;;;11.86;100.00
72896;BME280;61036;53.224;6.554;2022-11-15T13:40:54;100587.25;;;11.73;100.00
72896;BME280;61036;53.224;6.554;2022-11-15T13:46:21;100582.09;;;11.70;100.00
72896;BME280;61036;53.224;6.554;2022-11-15T13:48:53;100572.28;;;11.68;100.00
72896;BME280;61036;53.224;6.554;2022-11-15T13:54:00;100574.09;;;11.79;100.00
72896;BME280;61036;53.224;6.554;2022-11-15T13:56:32;100562.81;;;11.85;100.00
72896;BME280;61036;53.224;6.554;2022-11-15T13:59:00;100553.59;;;11.77;100.00
72896;BME280;61036;53.224;6.554;2022-11-15T14:01:28;100550.00;;;11.76;100.00
72896;BME280;61036;53.224;6.554;2022-11-15T14:03:58;100546.03;;;11.71;100.00
72896;BME280;61036;53.224;6.554;2022-11-15T14:06:28;100550.19;;;11.63;100.00
72896;BME280;61036;53.224;6.554;2022-11-15T14:11:36;100541.66;;;11.58;100.00
72896;BME280;61036;53.224;6.554;2022-11-15T14:16:44;100527.94;;;11.50;100.00
72896;BME280;61036;53.224;6.554;2022-11-15T14:22:19;100526.44;;;11.46;100.00
72896;BME280;61036;53.224;6.554;2022-11-15T14:25:18;100519.13;;;11.37;100.00
72896;BME280;61036;53.224;6.554;2022-11-15T14:28:14;100513.63;;;11.27;100.00
72896;BME280;61036;53.224;6.554;2022-11-15T14:30:42;100512.78;;;11.27;100.00
72896;BME280;61036;53.224;6.554;2022-11-15T14:33:35;100509.59;;;11.21;100.00
72896;BME280;61036;53.224;6.554;2022-11-15T14:36:19;100508.75;;;11.21;100.00
72896;BME280;61036;53.224;6.554;2022-11-15T14:38:46;100518.72;;;11.09;100.00
72896;BME280;61036;53.224;6.554;2022-11-15T14:41:23;100511.00;;;11.05;100.00
72896;BME280;61036;53.224;6.554;2022-11-15T14:43:50;100507.66;;;11.12;100.00
72896;BME280;61036;53.224;6.554;2022-11-15T14:46:16;100511.72;;;11.07;100.00
72896;BME280;61036;53.224;6.554;2022-11-15T14:48:42;100504.75;;;11.04;100.00
72896;BME280;61036;53.224;6.554;2022-11-15T14:51:15;100506.31;;;11.07;100.00
72896;BME280;61036;53.224;6.554;2022-11-15T14:53:41;100507.81;;;10.99;100.00
72896;BME280;61036;53.224;6.554;2022-11-15T14:56:08;100501.59;;;10.88;100.00
72896;BME280;61036;53.224;6.554;2022-11-15T14:58:33;100506.50;;;10.94;100.00
72896;BME280;61036;53.224;6.554;2022-11-15T15:03:39;100499.75;;;10.88;100.00
72896;BME280;61036;53.224;6.554;2022-11-15T15:06:05;100503.28;;;10.89;100.00
72896;BME280;61036;53.224;6.554;2022-11-15T15:08:31;100493.88;;;10.83;100.00
72896;BME280;61036;53.224;6.554;2022-11-15T15:10:58;100499.41;;;10.82;100.00
72896;BME280;61036;53.224;6.554;2022-11-15T15:13:24;100491.56;;;10.67;100.00
72896;BME280;61036;53.224;6.554;2022-11-15T15:15:51;100495.50;;;10.52;100.00
72896;BME280;61036;53.224;6.554;2022-11-15T15:18:18;100493.78;;;10.40;100.00
72896;BME280;61036;53.224;6.554;2022-11-15T15:20:44;100481.78;;;10.33;100.00
72896;BME280;61036;53.224;6.554;2022-11-15T15:23:18;100485.91;;;10.25;100.00
72896;BME280;61036;53.224;6.554;2022-11-15T15:25:46;100487.38;;;10.18;100.00
72896;BME280;61036;53.224;6.554;2022-11-15T15:28:13;100480.75;;;10.22;100.00
72896;BME280;61036;53.224;6.554;2022-11-15T15:30:38;100477.69;;;10.16;100.00
72896;BME280;61036;53.224;6.554;2022-11-15T15:33:06;100473.16;;;10.16;100.00
72896;BME280;61036;53.224;6.554;2022-11-15T15:35:35;100476.16;;;10.36;100.00
72896;BME280;61036;53.224;6.554;2022-11-15T15:38:00;100472.47;;;10.37;100.00
72896;BME280;61036;53.224;6.554;2022-11-15T15:40:29;100463.72;;;10.22;100.00
72896;BME280;61036;53.224;6.554;2022-11-15T15:42:55;100458.84;;;10.16;100.00
72896;BME280;61036;53.224;6.554;2022-11-15T15:45:21;100451.84;;;10.13;100.00
72896;BME280;61036;53.224;6.554;2022-11-15T15:47:46;100454.53;;;10.13;100.00
72896;BME280;61036;53.224;6.554;2022-11-15T15:50:20;100452.69;;;10.14;100.00
72896;BME280;61036;53.224;6.554;2022-11-15T15:52:46;100443.75;;;10.13;100.00
72896;BME280;61036;53.224;6.554;2022-11-15T15:55:12;100446.25;;;10.27;100.00
72896;BME280;61036;53.224;6.554;2022-11-15T15:57:38;100437.19;;;10.28;100.00
72896;BME280;61036;53.224;6.554;2022-11-15T16:00:07;100437.78;;;10.21;100.00
72896;BME280;61036;53.224;6.554;2022-11-15T16:02:38;100438.41;;;10.02;100.00
72896;BME280;61036;53.224;6.554;2022-11-15T16:05:03;100435.44;;;9.94;100.00